Hollybrook, Louisiana
Current Conditions -  °F | °C
As of 11:53 AM on Friday 21 Nov 2014 (Local Time) from KTVR Reporting Station
Overcast Overcast  
Wind Chill: 68°   Ceiling: 10000
Heat Index: 68°   Visibility: 10mi
Dew Point: 45°   Wind: 9mph
Humidity: 43%   Direction: 150°SSE
Pressure: 30.27"   Gusts: NA
Location:  32.8408°N, 91.231°W
Report Text: KTVR 211753Z AUTO 15008KT 10SM OVC100 20/07 A3027 RMK AO2 SLP256 T02000072 10206 20083 58013
Loading
Personal Weather Stations






























Interactive Weather Map New forecast layout! Learn more

10-Day Weather Forecast

Advertisements
Track Severe Weather on mobile